createdAt,value
2019-01-20T00:02:07.599Z,19.80
2019-01-20T00:04:37.329Z,19.70
2019-01-20T00:07:07.158Z,19.60
2019-01-20T00:09:36.993Z,19.70
2019-01-20T00:12:06.911Z,19.20
2019-01-20T00:14:36.652Z,19.70
2019-01-20T00:17:06.387Z,19.60
2019-01-20T00:19:36.104Z,19.60
2019-01-20T00:22:06.042Z,19.60
2019-01-20T00:24:35.866Z,19.20
2019-01-20T00:27:05.901Z,19.60
2019-01-20T00:29:35.824Z,19.50
2019-01-20T00:32:05.772Z,19.30
2019-01-20T00:34:35.593Z,19.70
2019-01-20T00:37:05.329Z,19.20
2019-01-20T00:39:35.038Z,19.30
2019-01-20T00:42:04.568Z,19.20
2019-01-20T00:44:34.305Z,19.20
2019-01-20T00:47:04.024Z,19.20
2019-01-20T00:49:33.732Z,19.10
2019-01-20T00:52:03.482Z,19.00
2019-01-20T00:54:33.422Z,19.00
2019-01-20T00:57:03.413Z,19.00
2019-01-20T00:59:33.177Z,19.00
2019-01-20T01:02:03.299Z,18.80
2019-01-20T01:04:32.924Z,19.00
2019-01-20T01:07:02.654Z,18.90
2019-01-20T01:09:32.371Z,18.80
2019-01-20T01:12:02.128Z,18.90
2019-01-20T01:14:31.937Z,18.90
2019-01-20T01:17:01.578Z,18.70
2019-01-20T01:19:31.497Z,18.80
2019-01-20T01:22:01.332Z,18.80
2019-01-20T01:24:30.952Z,18.70
2019-01-20T01:27:00.791Z,18.70
2019-01-20T01:29:30.391Z,18.70
2019-01-20T01:32:00.341Z,18.60
2019-01-20T01:34:30.265Z,18.60
2019-01-20T01:37:00.201Z,19.20
2019-01-20T01:39:30.120Z,18.50
2019-01-20T01:42:01.358Z,18.60
2019-01-20T01:44:31.227Z,18.50
2019-01-20T01:47:00.958Z,18.50
2019-01-20T01:49:30.665Z,18.50
2019-01-20T01:52:00.521Z,18.50
2019-01-20T01:54:30.437Z,18.40
2019-01-20T01:57:00.256Z,18.50
2019-01-20T01:59:29.686Z,18.40
2019-01-20T02:01:59.507Z,18.40
2019-01-20T02:04:29.227Z,18.40
2019-01-20T02:06:59.069Z,18.30
2019-01-20T02:09:29.007Z,18.40
2019-01-20T02:11:59.052Z,18.40
2019-01-20T02:14:28.969Z,18.40
2019-01-20T02:16:58.706Z,18.40
2019-01-20T02:19:28.426Z,18.40
2019-01-20T02:21:58.261Z,18.30
2019-01-20T02:24:28.060Z,18.40
2019-01-20T02:26:57.713Z,18.30
2019-01-20T02:29:27.628Z,18.10
2019-01-20T02:31:59.173Z,18.30
2019-01-20T02:34:28.812Z,18.20
2019-01-20T02:36:58.568Z,18.10
2019-01-20T02:39:28.389Z,18.10
2019-01-20T02:41:58.308Z,18.10
2019-01-20T02:44:28.023Z,18.10
2019-01-20T02:46:57.994Z,18.10
2019-01-20T02:49:27.788Z,18.00
2019-01-20T02:51:57.545Z,18.10
2019-01-20T02:54:27.253Z,17.90
2019-01-20T02:56:56.880Z,18.00
2019-01-20T02:59:26.810Z,18.00
2019-01-20T03:01:56.742Z,18.00
2019-01-20T03:04:26.583Z,17.90
2019-01-20T03:06:56.405Z,18.00
2019-01-20T03:09:26.229Z,17.90
2019-01-20T03:12:03.266Z,18.00
2019-01-20T03:14:27.424Z,17.40
2019-01-20T03:16:57.373Z,17.90
2019-01-20T03:19:27.390Z,18.20
2019-01-20T03:21:57.331Z,17.90
2019-01-20T03:24:27.056Z,18.30
2019-01-20T03:26:57.000Z,17.90
2019-01-20T03:29:26.617Z,17.80
2019-01-20T03:31:56.455Z,17.80
2019-01-20T03:34:26.371Z,17.80
2019-01-20T03:36:56.108Z,17.70
2019-01-20T03:39:26.019Z,18.20
2019-01-20T03:41:55.762Z,17.70
2019-01-20T03:44:25.749Z,18.00
2019-01-20T03:46:55.427Z,17.70
2019-01-20T03:49:26.260Z,17.70
2019-01-20T03:51:56.100Z,17.70
2019-01-20T03:54:26.041Z,17.50
2019-01-20T03:56:55.849Z,17.60
2019-01-20T03:59:25.708Z,17.50
2019-01-20T04:01:55.520Z,17.60
2019-01-20T04:04:25.358Z,17.60
2019-01-20T04:06:55.165Z,17.40
2019-01-20T04:09:25.102Z,17.60
2019-01-20T04:11:54.931Z,17.60
2019-01-20T04:14:24.689Z,17.60
2019-01-20T04:16:54.502Z,17.50
2019-01-20T04:19:24.433Z,17.40
2019-01-20T04:21:54.253Z,17.50
2019-01-20T04:24:23.800Z,17.50
2019-01-20T04:26:53.611Z,17.50
2019-01-20T04:29:23.540Z,17.40
2019-01-20T04:31:53.461Z,17.40
2019-01-20T04:34:23.205Z,17.50
2019-01-20T04:36:53.116Z,17.40
2019-01-20T04:39:22.860Z,17.50
2019-01-20T04:41:52.476Z,17.40
2019-01-20T04:44:22.317Z,17.40
2019-01-20T04:46:52.112Z,17.40
2019-01-20T04:49:21.646Z,17.40
2019-01-20T04:51:51.379Z,17.30
2019-01-20T04:54:21.427Z,17.30
2019-01-20T04:56:51.133Z,17.20
2019-01-20T04:59:20.980Z,17.40
2019-01-20T05:01:50.501Z,17.30
2019-01-20T05:04:20.441Z,17.30
2019-01-20T05:06:50.371Z,17.30
2019-01-20T05:09:20.217Z,17.30
2019-01-20T05:11:50.009Z,17.30
2019-01-20T05:14:19.860Z,17.10
2019-01-20T05:16:49.575Z,17.20
2019-01-20T05:19:19.308Z,17.30
2019-01-20T05:21:49.133Z,17.50
2019-01-20T05:24:18.869Z,17.20
2019-01-20T05:26:48.685Z,17.80
2019-01-20T05:29:18.535Z,17.10
2019-01-20T05:31:48.459Z,17.10
2019-01-20T05:34:18.289Z,17.00
2019-01-20T05:36:48.203Z,17.10
2019-01-20T05:39:17.855Z,17.20
2019-01-20T05:41:47.767Z,17.10
2019-01-20T05:44:17.709Z,17.10
2019-01-20T05:46:47.515Z,17.20
2019-01-20T05:49:17.268Z,17.40
2019-01-20T05:51:47.104Z,17.40
2019-01-20T05:54:17.030Z,17.70
2019-01-20T05:56:46.644Z,17.70
2019-01-20T05:59:16.689Z,17.80
2019-01-20T06:01:46.503Z,18.00
2019-01-20T06:04:16.229Z,18.10
2019-01-20T06:06:46.040Z,17.90
2019-01-20T06:09:15.692Z,18.00
2019-01-20T06:11:45.612Z,18.10
2019-01-20T06:14:15.462Z,18.50
2019-01-20T06:16:45.288Z,18.00
2019-01-20T06:19:15.220Z,18.10
2019-01-20T06:21:45.044Z,18.10
2019-01-20T06:24:14.974Z,18.70
2019-01-20T06:26:44.805Z,18.10
2019-01-20T06:29:14.630Z,18.70
2019-01-20T06:31:44.449Z,18.30
2019-01-20T06:34:14.193Z,18.70
2019-01-20T06:36:43.998Z,18.30
2019-01-20T06:39:13.945Z,18.40
2019-01-20T06:41:43.885Z,18.40
2019-01-20T06:44:13.720Z,19.10
2019-01-20T06:46:43.633Z,20.30
2019-01-20T06:49:13.479Z,19.00
2019-01-20T06:51:43.290Z,19.10
2019-01-20T06:54:12.936Z,19.00
2019-01-20T06:56:42.748Z,19.00
2019-01-20T06:59:12.709Z,19.00
2019-01-20T07:01:42.513Z,20.20
2019-01-20T07:04:12.352Z,17.30
2019-01-20T07:06:42.185Z,17.20
2019-01-20T07:09:12.112Z,20.60
2019-01-20T07:11:43.522Z,16.90
2019-01-20T07:14:13.306Z,16.60
2019-01-20T07:16:43.230Z,16.20
2019-01-20T07:19:13.075Z,16.50
2019-01-20T07:21:42.986Z,16.40
2019-01-20T07:24:12.917Z,16.60
2019-01-20T07:26:42.670Z,16.40
2019-01-20T07:29:12.491Z,16.10
2019-01-20T07:31:42.301Z,16.10
2019-01-20T07:34:12.219Z,16.10
2019-01-20T07:36:41.973Z,16.20
2019-01-20T07:39:11.899Z,16.00
2019-01-20T07:41:41.926Z,16.90
2019-01-20T07:44:11.736Z,17.30
2019-01-20T07:46:41.847Z,19.10
2019-01-20T07:49:11.678Z,19.90
2019-01-20T07:51:41.253Z,20.30
2019-01-20T07:54:10.981Z,19.40
2019-01-20T07:56:40.805Z,19.60
2019-01-20T07:59:10.424Z,17.80
2019-01-20T08:01:40.175Z,17.40
2019-01-20T08:04:09.873Z,18.20
2019-01-20T08:06:39.622Z,18.30
2019-01-20T08:09:09.857Z,18.00
2019-01-20T08:11:40.732Z,18.00
2019-01-20T08:14:12.319Z,18.10
2019-01-20T08:16:42.117Z,17.90
2019-01-20T08:19:11.944Z,17.90
2019-01-20T08:21:41.663Z,17.80
2019-01-20T08:24:11.480Z,18.40
2019-01-20T08:26:41.523Z,18.70
2019-01-20T08:29:12.495Z,19.50
2019-01-20T08:31:42.512Z,19.70
2019-01-20T08:34:12.436Z,20.60
2019-01-20T08:36:42.180Z,20.60
2019-01-20T08:39:11.798Z,20.40
2019-01-20T08:41:41.632Z,20.20
2019-01-20T08:44:12.828Z,20.10
2019-01-20T08:47:29.599Z,20.60
2019-01-20T08:49:59.523Z,20.00
2019-01-20T08:52:29.259Z,20.10
2019-01-20T08:55:00.420Z,20.00
2019-01-20T08:57:30.024Z,20.00
2019-01-20T08:59:59.857Z,20.10
2019-01-20T09:02:29.797Z,20.30
2019-01-20T09:04:59.714Z,20.70
2019-01-20T09:07:29.443Z,20.10
2019-01-20T09:09:59.053Z,20.30
2019-01-20T09:12:28.883Z,20.00
2019-01-20T09:14:58.728Z,20.50
2019-01-20T09:17:28.776Z,20.50
2019-01-20T09:19:58.592Z,20.10
2019-01-20T09:22:29.538Z,20.20
2019-01-20T09:24:59.373Z,20.70
2019-01-20T09:27:28.901Z,20.90
2019-01-20T09:29:58.712Z,21.00
2019-01-20T09:32:28.577Z,21.10
2019-01-20T09:34:58.393Z,21.10
2019-01-20T09:37:28.317Z,21.30
2019-01-20T09:39:58.071Z,21.40
2019-01-20T09:42:27.995Z,21.60
2019-01-20T09:44:57.821Z,21.80
2019-01-20T09:47:27.547Z,22.30
2019-01-20T09:49:57.359Z,23.00
2019-01-20T09:52:27.075Z,23.30
2019-01-20T09:54:56.921Z,23.60
2019-01-20T09:57:26.865Z,23.80
2019-01-20T09:59:57.539Z,24.20
2019-01-20T10:02:27.241Z,24.80
2019-01-20T10:04:56.752Z,25.30
2019-01-20T10:07:26.588Z,25.60
2019-01-20T10:09:56.500Z,25.30
2019-01-20T10:12:26.453Z,25.10
2019-01-20T10:14:56.385Z,25.40
2019-01-20T10:17:26.133Z,25.60
2019-01-20T10:19:56.053Z,24.40
2019-01-20T10:22:25.673Z,24.90
2019-01-20T10:24:55.379Z,25.80
2019-01-20T10:27:25.140Z,25.60
2019-01-20T10:29:54.936Z,25.80
2019-01-20T10:32:24.577Z,25.90
2019-01-20T10:34:54.797Z,25.70
2019-01-20T10:37:25.041Z,25.70
2019-01-20T10:39:54.869Z,25.60
2019-01-20T10:42:24.516Z,25.50
2019-01-20T10:44:54.223Z,25.40
2019-01-20T10:47:23.960Z,25.30
2019-01-20T10:49:53.778Z,25.50
2019-01-20T10:52:24.769Z,25.30
2019-01-20T10:54:54.576Z,25.60
2019-01-20T10:57:24.405Z,25.10
2019-01-20T10:59:53.827Z,25.20
2019-01-20T11:02:23.640Z,25.50
2019-01-20T11:04:57.390Z,25.60
2019-01-20T11:07:24.741Z,25.60
2019-01-20T11:09:54.565Z,25.20
2019-01-20T11:12:24.308Z,25.00
2019-01-20T11:14:54.012Z,24.80
2019-01-20T11:17:23.847Z,24.90
2019-01-20T11:19:54.901Z,24.40
2019-01-20T11:22:24.744Z,24.00
2019-01-20T11:24:54.444Z,24.30
2019-01-20T11:27:24.179Z,24.40
2019-01-20T11:29:54.122Z,24.10
2019-01-20T11:32:23.956Z,24.10
2019-01-20T11:34:53.592Z,24.00
2019-01-20T11:37:23.534Z,24.10
2019-01-20T11:39:53.234Z,24.10
2019-01-20T11:42:22.973Z,24.10
2019-01-20T11:44:52.681Z,24.20
2019-01-20T11:47:22.500Z,24.30
2019-01-20T11:49:52.356Z,24.10
2019-01-20T11:52:22.193Z,24.10
2019-01-20T11:54:51.910Z,24.10
2019-01-20T11:57:21.833Z,24.10
2019-01-20T11:59:51.690Z,24.40
2019-01-20T12:02:22.540Z,24.80
2019-01-20T12:04:52.443Z,20.70
2019-01-20T12:07:22.179Z,20.40
2019-01-20T12:09:51.914Z,23.10
2019-01-20T12:12:21.635Z,24.00
2019-01-20T12:14:51.576Z,23.70
2019-01-20T12:17:21.413Z,23.60
2019-01-20T12:19:51.350Z,23.40
2019-01-20T12:22:21.642Z,23.40
2019-01-20T12:24:51.524Z,23.50
2019-01-20T12:27:21.251Z,23.30
2019-01-20T12:29:51.901Z,23.30
2019-01-20T12:32:23.635Z,23.50
2019-01-20T12:34:53.824Z,23.30
2019-01-20T12:37:23.884Z,23.70
2019-01-20T12:39:53.871Z,23.30
2019-01-20T12:42:23.932Z,23.30
2019-01-20T12:44:53.622Z,23.70
2019-01-20T12:47:25.374Z,23.70
2019-01-20T12:49:55.531Z,23.70
2019-01-20T12:52:26.037Z,23.80
2019-01-20T12:54:57.878Z,23.80
2019-01-20T12:57:28.410Z,23.70
2019-01-20T12:59:58.660Z,23.70
2019-01-20T13:02:30.039Z,23.80
2019-01-20T13:05:02.338Z,23.70
2019-01-20T13:07:33.112Z,23.80
2019-01-20T13:10:04.934Z,23.90
2019-01-20T13:12:35.417Z,23.80
2019-01-20T13:15:07.829Z,23.80
2019-01-20T13:17:39.851Z,24.00
2019-01-20T13:20:14.323Z,24.10
2019-01-20T13:22:44.585Z,24.10
2019-01-20T13:25:18.664Z,24.10
2019-01-20T13:27:49.448Z,24.80
2019-01-20T13:30:22.902Z,24.00
2019-01-20T13:32:54.631Z,24.20
2019-01-20T13:35:27.346Z,24.10
2019-01-20T13:38:07.081Z,24.00
2019-01-20T13:40:44.564Z,24.50
2019-01-20T13:43:15.054Z,24.10
2019-01-20T13:45:45.998Z,24.10
2019-01-20T13:48:18.383Z,24.10
2019-01-20T13:50:49.819Z,24.20
2019-01-20T13:53:21.293Z,24.10
2019-01-20T13:55:52.390Z,23.90
2019-01-20T13:58:23.143Z,23.90
2019-01-20T14:00:53.832Z,23.90
2019-01-20T14:03:25.937Z,24.10
2019-01-20T14:05:57.492Z,24.00
2019-01-20T14:08:27.398Z,24.00
2019-01-20T14:10:59.100Z,23.70
2019-01-20T14:13:30.981Z,24.10
2019-01-20T14:16:02.912Z,23.70
2019-01-20T14:18:32.751Z,24.10
2019-01-20T14:21:02.462Z,24.10
2019-01-20T14:23:32.286Z,24.20
2019-01-20T14:26:02.017Z,24.20
2019-01-20T14:28:31.929Z,23.90
2019-01-20T14:31:01.807Z,24.20
2019-01-20T14:33:31.699Z,24.20
2019-01-20T14:36:01.658Z,24.30
2019-01-20T14:38:31.527Z,23.90
2019-01-20T14:41:01.280Z,24.10
2019-01-20T14:43:31.227Z,24.50
2019-01-20T14:46:00.951Z,24.20
2019-01-20T14:48:32.130Z,24.30
2019-01-20T14:51:02.050Z,24.50
2019-01-20T14:53:31.981Z,24.90
2019-01-20T14:56:01.903Z,24.40
2019-01-20T14:58:31.842Z,24.50
2019-01-20T15:01:01.676Z,24.10
2019-01-20T15:03:31.498Z,24.60
2019-01-20T15:06:01.328Z,24.60
2019-01-20T15:08:31.165Z,24.90
2019-01-20T15:11:01.084Z,24.30
2019-01-20T15:13:30.813Z,24.10
2019-01-20T15:16:00.654Z,24.60
2019-01-20T15:18:30.497Z,24.80
2019-01-20T15:21:00.022Z,25.90
2019-01-20T15:23:29.834Z,25.90
2019-01-20T15:26:00.956Z,26.50
2019-01-20T15:28:30.600Z,26.70
2019-01-20T15:31:00.550Z,27.30
2019-01-20T15:33:30.506Z,27.50
2019-01-20T15:36:00.218Z,27.90
2019-01-20T15:38:29.921Z,27.30
2019-01-20T15:41:02.366Z,26.60
2019-01-20T15:43:37.310Z,26.50
2019-01-20T15:46:09.550Z,26.40
2019-01-20T15:48:41.480Z,25.80
2019-01-20T15:51:12.816Z,25.90
2019-01-20T15:53:45.489Z,25.70
2019-01-20T15:56:17.138Z,25.40
2019-01-20T15:58:49.558Z,25.30
2019-01-20T16:01:19.378Z,25.10
2019-01-20T16:03:51.690Z,24.80
2019-01-20T16:06:25.866Z,25.30
2019-01-20T16:08:58.617Z,25.00
2019-01-20T16:11:31.373Z,24.60
2019-01-20T16:14:03.717Z,24.50
2019-01-20T16:16:36.255Z,24.50
2019-01-20T16:19:06.228Z,24.50
2019-01-20T16:21:36.042Z,24.10
2019-01-20T16:24:07.768Z,24.20
2019-01-20T16:26:40.093Z,24.00
2019-01-20T16:29:13.599Z,23.90
2019-01-20T16:31:45.899Z,23.70
2019-01-20T16:34:19.139Z,23.50
2019-01-20T16:36:51.765Z,23.70
2019-01-20T16:39:21.523Z,23.70
2019-01-20T16:41:53.013Z,23.30
2019-01-20T16:44:25.665Z,23.30
2019-01-20T16:46:58.026Z,23.00
2019-01-20T16:49:27.981Z,23.00
2019-01-20T16:51:59.770Z,23.00
2019-01-20T16:54:31.616Z,23.00
2019-01-20T16:57:02.705Z,22.80
2019-01-20T16:59:35.023Z,22.80
2019-01-20T17:02:07.731Z,23.10
2019-01-20T17:04:39.336Z,23.00
2019-01-20T17:07:11.715Z,22.90
2019-01-20T17:09:44.318Z,23.40
2019-01-20T17:12:14.197Z,23.40
2019-01-20T17:14:46.830Z,23.60
2019-01-20T17:17:16.468Z,23.70
2019-01-20T17:19:48.696Z,24.10
2019-01-20T17:22:19.516Z,24.00
2019-01-20T17:24:49.149Z,23.70
2019-01-20T17:27:18.970Z,23.80
2019-01-20T17:29:48.883Z,23.70
2019-01-20T17:32:20.325Z,23.80
2019-01-20T17:34:51.914Z,23.90
2019-01-20T17:37:22.057Z,23.90
2019-01-20T17:39:52.758Z,24.00
2019-01-20T17:42:24.423Z,24.20
2019-01-20T17:44:57.059Z,24.10
2019-01-20T17:47:28.922Z,24.10
2019-01-20T17:50:03.054Z,24.10
2019-01-20T17:52:35.355Z,25.20
2019-01-20T17:55:08.161Z,24.80
2019-01-20T17:57:39.837Z,25.10
2019-01-20T18:00:14.333Z,25.10
2019-01-20T18:02:46.981Z,24.80
2019-01-20T18:05:20.181Z,25.10
2019-01-20T18:07:51.579Z,24.40
2019-01-20T18:10:22.605Z,24.90
2019-01-20T18:12:54.193Z,25.20
2019-01-20T18:15:23.890Z,25.30
2019-01-20T18:17:59.289Z,25.40
2019-01-20T18:20:31.666Z,26.00
2019-01-20T18:23:03.057Z,25.60
2019-01-20T18:25:35.313Z,25.30
2019-01-20T18:28:08.509Z,25.70
2019-01-20T18:30:41.168Z,26.00
2019-01-20T18:33:13.978Z,25.80
2019-01-20T18:35:47.002Z,26.80
2019-01-20T18:38:19.455Z,26.90
2019-01-20T18:40:52.225Z,26.70
2019-01-20T18:43:24.190Z,26.80
2019-01-20T18:46:01.534Z,26.10
2019-01-20T18:48:30.263Z,26.00
2019-01-20T18:51:02.545Z,25.80
2019-01-20T18:53:33.639Z,25.80
2019-01-20T18:56:07.262Z,25.50
2019-01-20T18:58:41.207Z,25.40
2019-01-20T19:01:14.742Z,25.50
2019-01-20T19:03:46.395Z,25.40
2019-01-20T19:06:18.694Z,25.10
2019-01-20T19:08:51.150Z,25.10
2019-01-20T19:11:24.360Z,25.00
2019-01-20T19:13:55.033Z,25.10
2019-01-20T19:16:24.597Z,24.90
2019-01-20T19:18:54.191Z,24.60
2019-01-20T19:21:24.048Z,24.50
2019-01-20T19:23:53.660Z,24.70
2019-01-20T19:26:23.495Z,24.80
2019-01-20T19:28:54.265Z,24.80
2019-01-20T19:31:23.959Z,25.00
2019-01-20T19:33:53.893Z,24.60
2019-01-20T19:36:23.649Z,25.00
2019-01-20T19:38:53.552Z,24.40
2019-01-20T19:41:23.199Z,24.80
2019-01-20T19:43:53.016Z,25.20
2019-01-20T19:46:24.044Z,24.80
2019-01-20T19:48:53.900Z,24.90
2019-01-20T19:51:23.672Z,24.80
2019-01-20T19:53:53.474Z,25.10
2019-01-20T19:56:23.388Z,25.00
2019-01-20T19:58:53.118Z,24.40
2019-01-20T20:01:22.966Z,24.50
2019-01-20T20:03:52.686Z,24.30
2019-01-20T20:06:22.296Z,24.30
2019-01-20T20:08:52.026Z,24.20
2019-01-20T20:11:21.988Z,24.10
2019-01-20T20:13:51.775Z,24.70
2019-01-20T20:16:23.525Z,24.50
2019-01-20T20:18:53.075Z,24.50
2019-01-20T20:21:22.919Z,24.40
2019-01-20T20:23:52.838Z,24.30
2019-01-20T20:26:22.568Z,24.30
2019-01-20T20:28:52.602Z,24.10
2019-01-20T20:31:22.442Z,24.00
2019-01-20T20:33:52.358Z,24.60
2019-01-20T20:36:22.028Z,23.90
2019-01-20T20:38:51.797Z,23.80
2019-01-20T20:41:21.651Z,23.70
2019-01-20T20:43:51.400Z,23.70
2019-01-20T20:46:21.316Z,23.60
2019-01-20T20:48:51.155Z,23.50
2019-01-20T20:51:20.861Z,23.40
2019-01-20T20:53:50.476Z,23.30
2019-01-20T20:56:20.331Z,23.30
2019-01-20T20:58:50.151Z,22.70
2019-01-20T21:01:19.982Z,23.20
2019-01-20T21:03:49.828Z,23.20
2019-01-20T21:06:19.638Z,23.00
2019-01-20T21:08:49.473Z,23.00
2019-01-20T21:11:19.299Z,22.90
2019-01-20T21:13:49.041Z,22.70
2019-01-20T21:16:19.065Z,22.70
2019-01-20T21:18:48.688Z,22.60
2019-01-20T21:21:18.605Z,22.60
2019-01-20T21:23:48.453Z,22.50
2019-01-20T21:26:18.286Z,23.00
2019-01-20T21:28:48.002Z,22.50
2019-01-20T21:31:17.616Z,22.50
2019-01-20T21:33:47.355Z,22.30
2019-01-20T21:36:17.171Z,22.40
2019-01-20T21:38:47.119Z,22.30
2019-01-20T21:41:17.041Z,22.10
2019-01-20T21:43:46.751Z,22.30
2019-01-20T21:46:16.488Z,22.20
2019-01-20T21:48:46.487Z,22.10
2019-01-20T21:51:16.169Z,22.00
2019-01-20T21:53:46.079Z,22.00
2019-01-20T21:56:16.020Z,21.90
2019-01-20T21:58:45.837Z,22.10
2019-01-20T22:01:15.672Z,21.90
2019-01-20T22:03:45.516Z,21.70
2019-01-20T22:06:15.433Z,21.70
2019-01-20T22:08:46.270Z,21.90
2019-01-20T22:11:16.126Z,21.80
2019-01-20T22:13:46.046Z,21.70
2019-01-20T22:16:15.880Z,21.90
2019-01-20T22:18:45.504Z,21.80
2019-01-20T22:21:15.331Z,21.70
2019-01-20T22:23:45.163Z,21.60
2019-01-20T22:26:14.689Z,21.50
2019-01-20T22:28:44.320Z,21.50
2019-01-20T22:31:14.123Z,21.70
2019-01-20T22:33:44.069Z,21.40
2019-01-20T22:36:13.997Z,21.50
2019-01-20T22:38:43.736Z,21.40
2019-01-20T22:41:13.748Z,21.40
2019-01-20T22:43:43.614Z,21.40
2019-01-20T22:46:13.310Z,21.60
2019-01-20T22:48:43.290Z,21.30
2019-01-20T22:51:13.073Z,21.30
2019-01-20T22:53:42.814Z,21.10
2019-01-20T22:56:12.619Z,21.10
2019-01-20T22:58:42.474Z,21.10
2019-01-20T23:01:20.991Z,20.80
2019-01-20T23:03:50.917Z,20.90
2019-01-20T23:06:20.752Z,20.90
2019-01-20T23:08:50.697Z,20.80
2019-01-20T23:11:20.611Z,21.10
2019-01-20T23:13:50.184Z,20.80
2019-01-20T23:16:20.043Z,21.10
2019-01-20T23:18:49.907Z,20.80
2019-01-20T23:21:19.816Z,20.70
2019-01-20T23:23:49.448Z,20.80
2019-01-20T23:26:19.081Z,20.70
2019-01-20T23:28:49.046Z,20.70
2019-01-20T23:31:18.824Z,21.20
2019-01-20T23:33:48.385Z,20.80
2019-01-20T23:36:18.190Z,20.70
2019-01-20T23:38:48.823Z,20.70
2019-01-20T23:41:18.664Z,20.70
2019-01-20T23:43:48.414Z,20.70
2019-01-20T23:46:18.018Z,20.60
2019-01-20T23:48:51.439Z,20.60
2019-01-20T23:51:20.951Z,20.50
2019-01-20T23:53:50.764Z,20.50
2019-01-20T23:56:20.514Z,20.50
2019-01-20T23:58:50.346Z,20.50
